Time;durP1;ratioP1;P1;durP2;ratioP2;P2;SDS_P1;SDS_P2;PMS_P1;PMS_P2;Temp;Humidity;BMP_temperature;BMP_pressure;BME280_temperature;BME280_humidity;BME280_pressure;Samples;Min_cycle;Max_cycle;Signal;HPM_P1;HPM_P2
2023/08/16 00:03:23;;;;;;;17.12;4.62;;;;;;;24.80;68.98;100730.67;5258643;54;1138817;-64
2023/08/16 00:08:29;;;;;;;6.03;4.42;;;;;;;24.73;69.58;100745.25;5244248;54;1140941;-65
2023/08/16 00:13:35;;;;;;;6.22;4.45;;;;;;;24.69;69.48;100740.77;5260327;54;1138985;-66
2023/08/16 00:18:41;;;;;;;5.95;4.70;;;;;;;24.57;69.66;100744.28;5267742;54;1138601;-65
2023/08/16 00:23:47;;;;;;;8.10;4.72;;;;;;;24.48;70.37;100745.80;5258744;54;1138949;-65
2023/08/16 00:28:53;;;;;;;6.70;5.15;;;;;;;24.27;69.98;100742.43;5259103;54;1139080;-64
2023/08/16 00:33:59;;;;;;;9.13;4.67;;;;;;;23.97;71.46;100754.02;5278856;54;1138568;-65
2023/08/16 00:39:05;;;;;;;14.50;5.37;;;;;;;23.94;72.33;100746.31;5258207;54;1139226;-65
2023/08/16 00:44:10;;;;;;;10.40;5.40;;;;;;;23.89;72.48;100739.31;5258452;54;1140772;-64
2023/08/16 00:49:16;;;;;;;5.92;5.30;;;;;;;23.98;73.33;100725.97;5279092;55;1140663;-65
2023/08/16 00:54:22;;;;;;;8.38;5.12;;;;;;;23.91;72.62;100728.63;5250793;54;1138817;-67
2023/08/16 00:59:29;;;;;;;9.55;5.37;;;;;;;23.89;73.09;100727.99;5242852;54;1138830;-65
2023/08/16 01:04:35;;;;;;;8.33;5.72;;;;;;;23.78;72.75;100741.56;5259661;54;1138902;-65
2023/08/16 01:09:41;;;;;;;6.90;5.40;;;;;;;23.70;73.87;100738.17;5245144;55;1138745;-64
2023/08/16 01:14:56;;;;;;;7.13;5.37;;;;;;;23.59;74.54;100739.57;5258345;54;1138728;-64
2023/08/16 01:20:04;;;;;;;10.05;5.45;;;;;;;23.61;74.61;100731.27;5278951;54;1138928;-65
2023/08/16 01:25:35;;;;;;;11.38;5.72;;;;;;;23.47;74.45;100729.81;5222863;54;1140897;-64
2023/08/16 01:30:42;;;;;;;10.57;5.87;;;;;;;23.38;74.52;100735.55;5258312;54;1140905;-65
2023/08/16 01:35:47;;;;;;;8.30;6.30;;;;;;;22.88;75.61;100759.02;5257949;54;1140735;-64
2023/08/16 01:41:09;;;;;;;20.80;5.90;;;;;;;22.37;77.39;100751.50;5278462;54;1138640;-65
2023/08/16 01:46:17;;;;;;;6.43;5.83;;;;;;;22.33;78.20;100751.55;5256779;55;1140903;-65
2023/08/16 01:51:24;;;;;;;11.66;5.98;;;;;;;22.34;79.97;100754.06;5275633;54;1138995;-66
2023/08/16 01:56:30;;;;;;;9.93;7.35;;;;;;;22.47;79.90;100761.45;5256919;54;1140984;-64
2023/08/16 02:01:36;;;;;;;10.68;6.97;;;;;;;22.63;80.63;100754.47;5256175;54;1138978;-65
2023/08/16 02:06:42;;;;;;;10.15;6.15;;;;;;;22.74;80.08;100755.84;5258492;54;1140921;-65
2023/08/16 02:11:47;;;;;;;11.93;6.53;;;;;;;22.75;80.08;100761.05;5278758;54;1140645;-65
2023/08/16 02:16:53;;;;;;;15.70;6.50;;;;;;;22.80;81.12;100752.40;5257933;54;1140700;-64
2023/08/16 02:21:58;;;;;;;8.25;5.75;;;;;;;22.76;80.91;100743.02;5258016;54;1140839;-65
2023/08/16 02:27:04;;;;;;;12.65;6.72;;;;;;;22.61;80.13;100757.88;5278970;54;1138826;-65
2023/08/16 02:32:10;;;;;;;7.58;5.60;;;;;;;22.49;81.29;100740.53;5257167;54;1140941;-64
2023/08/16 02:37:15;;;;;;;10.90;6.17;;;;;;;22.43;82.08;100738.63;5258385;55;1138708;-65
2023/08/16 02:42:21;;;;;;;7.30;5.95;;;;;;;22.40;81.72;100733.09;5285885;54;1140922;-65
2023/08/16 02:47:27;;;;;;;9.83;6.65;;;;;;;22.25;83.08;100726.08;5273991;54;1138576;-64
2023/08/16 02:52:33;;;;;;;7.50;6.03;;;;;;;22.14;84.18;100723.38;5227238;54;1138809;-65
2023/08/16 02:57:39;;;;;;;8.03;5.60;;;;;;;22.17;84.67;100731.56;5337421;55;1139277;-65
2023/08/16 03:02:44;;;;;;;8.75;5.78;;;;;;;22.16;84.83;100721.80;5313176;55;1139170;-64
2023/08/16 03:07:50;;;;;;;8.70;5.65;;;;;;;22.15;84.87;100715.61;5293246;55;1138964;-65
2023/08/16 03:12:56;;;;;;;19.77;6.78;;;;;;;22.14;85.16;100720.67;5355465;55;1138977;-65
2023/08/16 03:18:01;;;;;;;11.20;6.30;;;;;;;22.21;85.45;100724.27;5405325;54;1140730;-65
2023/08/16 03:23:07;;;;;;;11.35;6.30;;;;;;;22.25;85.41;100727.42;5307866;54;1140604;-65
2023/08/16 03:28:12;;;;;;;9.67;5.63;;;;;;;22.23;85.02;100724.92;5242790;54;1140919;-66
2023/08/16 03:33:20;;;;;;;16.93;6.65;;;;;;;22.25;85.00;100730.95;5301279;54;1138599;-65
2023/08/16 03:38:26;;;;;;;15.83;7.03;;;;;;;22.30;85.05;100731.23;5280624;54;1140913;-64
2023/08/16 03:43:32;;;;;;;11.92;7.14;;;;;;;22.31;84.91;100726.65;5275161;54;1140843;-64
2023/08/16 03:48:38;;;;;;;16.60;8.33;;;;;;;22.23;84.71;100730.30;5257857;54;1141110;-64
2023/08/16 03:53:44;;;;;;;19.12;7.37;;;;;;;22.21;84.99;100731.00;5236598;55;1140814;-65
2023/08/16 03:58:49;;;;;;;10.35;6.92;;;;;;;22.22;84.75;100729.98;5170106;55;1140740;-65
2023/08/16 04:03:55;;;;;;;13.05;7.97;;;;;;;22.14;84.41;100730.11;5170233;55;1140833;-64
2023/08/16 04:09:00;;;;;;;11.38;6.83;;;;;;;22.13;84.34;100739.72;5190715;55;1140655;-65
2023/08/16 04:14:07;;;;;;;7.22;6.47;;;;;;;22.09;83.88;100747.34;5251653;54;1141177;-64
2023/08/16 04:19:13;;;;;;;17.42;6.30;;;;;;;21.92;82.99;100756.61;5259222;54;1139013;-65
2023/08/16 04:24:18;;;;;;;10.88;7.65;;;;;;;21.96;84.30;100759.26;5216878;55;1140829;-64
2023/08/16 04:29:24;;;;;;;18.17;7.80;;;;;;;21.93;84.28;100751.04;5170349;55;1141030;-65
2023/08/16 04:34:30;;;;;;;13.30;6.30;;;;;;;21.90;84.68;100759.48;5170830;55;1140892;-64
2023/08/16 04:39:36;;;;;;;7.22;6.17;;;;;;;21.92;84.80;100781.69;5170501;55;1141017;-65
2023/08/16 04:44:42;;;;;;;7.95;6.75;;;;;;;21.86;84.86;100792.35;5214419;54;1138974;-65
2023/08/16 04:49:48;;;;;;;7.22;5.72;;;;;;;21.60;85.31;100784.22;5209822;54;1138876;-65
2023/08/16 04:54:54;;;;;;;12.37;6.78;;;;;;;21.49;86.66;100798.64;5233753;54;1139116;-65
2023/08/16 05:00:04;;;;;;;15.75;6.70;;;;;;;21.49;88.21;100795.45;5279324;54;1141275;-64
2023/08/16 05:05:09;;;;;;;8.40;6.50;;;;;;;21.64;88.25;100792.27;5258336;54;1140912;-65
2023/08/16 05:10:16;;;;;;;13.17;7.03;;;;;;;21.83;88.67;100790.89;5259392;54;1138909;-65
2023/08/16 05:15:22;;;;;;;9.08;7.78;;;;;;;22.00;88.92;100798.27;5279496;54;1140928;-66
2023/08/16 05:20:29;;;;;;;8.13;7.08;;;;;;;22.08;88.46;100804.93;5258037;54;1138615;-65
2023/08/16 05:25:39;;;;;;;10.35;6.87;;;;;;;22.09;88.34;100791.78;5258539;54;1138789;-65
2023/08/16 05:30:44;;;;;;;12.53;6.97;;;;;;;22.14;88.97;100800.66;5258473;54;1141030;-64
2023/08/16 05:35:50;;;;;;;10.80;7.12;;;;;;;22.21;89.22;100807.79;5278436;54;1140828;-64
2023/08/16 05:40:55;;;;;;;12.90;7.22;;;;;;;22.26;89.32;100795.95;5234311;55;1141213;-65
2023/08/16 05:46:02;;;;;;;10.28;6.95;;;;;;;22.31;89.83;100804.28;5166619;55;1140758;-65
2023/08/16 05:51:07;;;;;;;13.20;8.67;;;;;;;22.44;90.09;100810.37;5212060;55;1141330;-65
2023/08/16 05:56:13;;;;;;;10.23;8.63;;;;;;;22.56;89.75;100816.11;5277737;54;1141077;-65
2023/08/16 06:01:19;;;;;;;13.48;8.58;;;;;;;22.63;89.09;100812.95;5279856;54;1140852;-65
2023/08/16 06:06:24;;;;;;;11.83;8.53;;;;;;;22.80;89.41;100816.61;5301038;54;1140793;-65
2023/08/16 06:11:30;;;;;;;7.65;6.95;;;;;;;23.52;89.23;100805.38;5280145;54;1140951;-65
2023/08/16 06:16:37;;;;;;;10.10;7.78;;;;;;;23.52;89.23;100805.38;5279618;54;1138695;-65
2023/08/16 06:21:43;;;;;;;13.28;8.78;;;;;;;23.53;86.36;100811.89;5279225;54;1140947;-65
2023/08/16 06:26:48;;;;;;;11.30;9.25;;;;;;;23.45;86.47;100818.77;5300592;54;1140688;-65
2023/08/16 06:31:59;;;;;;;9.90;8.60;;;;;;;23.46;87.84;100825.84;5280162;54;1140730;-65
2023/08/16 06:37:04;;;;;;;13.43;8.07;;;;;;;23.70;88.47;100832.17;5257926;54;1138647;-65
2023/08/16 06:42:10;;;;;;;9.60;7.85;;;;;;;23.88;86.82;100836.25;5206835;55;1141429;-65
2023/08/16 06:47:16;;;;;;;13.05;9.03;;;;;;;23.98;86.43;100842.98;5195706;55;1139065;-65
2023/08/16 06:52:22;;;;;;;11.55;8.43;;;;;;;24.15;86.01;100842.12;5245183;54;1141089;-65
2023/08/16 06:57:28;;;;;;;13.05;8.55;;;;;;;24.38;85.50;100854.87;5190916;55;1140844;-65
2023/08/16 07:02:33;;;;;;;12.47;9.55;;;;;;;24.57;85.91;100847.05;5170569;54;1140951;-65
2023/08/16 07:07:39;;;;;;;13.35;9.25;;;;;;;24.79;83.61;100848.56;5171207;54;1141212;-65
2023/08/16 07:12:45;;;;;;;11.93;8.90;;;;;;;24.98;83.49;100855.94;5227445;54;1140891;-65
2023/08/16 07:17:51;;;;;;;11.28;9.18;;;;;;;25.21;82.96;100863.66;5278892;54;1140729;-65
2023/08/16 07:22:58;;;;;;;10.95;9.55;;;;;;;25.35;83.15;100862.67;5258735;54;1140709;-65
2023/08/16 07:28:04;;;;;;;13.50;10.78;;;;;;;25.35;81.80;100865.90;5259636;54;1140718;-65
2023/08/16 07:33:10;;;;;;;12.53;11.13;;;;;;;25.31;81.80;100872.76;5279568;54;1143895;-65
2023/08/16 07:38:16;;;;;;;13.20;10.60;;;;;;;25.35;83.17;100880.79;5238487;54;1143082;-65
2023/08/16 07:43:22;;;;;;;15.00;11.53;;;;;;;25.43;83.05;100880.58;5169199;55;1142955;-65
2023/08/16 07:48:27;;;;;;;21.40;12.35;;;;;;;25.37;85.49;100875.45;5205376;55;1142871;-65
2023/08/16 07:53:33;;;;;;;30.65;12.80;;;;;;;25.37;85.49;100875.45;5258716;55;1142858;-65
2023/08/16 07:58:38;;;;;;;13.98;11.85;;;;;;;25.56;86.75;100895.47;5258674;55;1143019;-64
2023/08/16 08:03:46;;;;;;;13.70;12.17;;;;;;;25.80;87.78;100888.64;5258715;54;1142994;-65
2023/08/16 08:08:51;;;;;;;13.28;11.55;;;;;;;26.08;87.64;100896.53;5279095;54;1142843;-65
2023/08/16 08:13:57;;;;;;;13.80;11.90;;;;;;;26.26;88.00;100894.83;5257521;55;1142754;-65
2023/08/16 08:19:03;;;;;;;11.95;9.55;;;;;;;26.39;87.96;100891.80;5259200;54;1143000;-64
2023/08/16 08:24:09;;;;;;;12.53;9.70;;;;;;;26.61;89.00;100895.34;5279486;54;1140624;-65
2023/08/16 08:29:14;;;;;;;11.22;9.70;;;;;;;26.84;89.84;100902.98;5259217;54;1140793;-64
2023/08/16 08:34:21;;;;;;;17.93;9.20;;;;;;;26.94;88.34;100914.23;5242032;55;1140869;-65
2023/08/16 08:39:28;;;;;;;8.90;8.00;;;;;;;26.96;87.25;100920.28;5190254;55;1140932;-65
2023/08/16 08:44:34;;;;;;;15.08;8.38;;;;;;;27.16;88.14;100921.54;5182716;55;1138577;-65
2023/08/16 08:49:41;;;;;;;14.95;7.75;;;;;;;27.31;87.29;100919.36;5212335;54;1141059;-65
2023/08/16 08:54:47;;;;;;;8.57;7.77;;;;;;;27.56;87.48;100926.70;5170598;55;1141210;-65
2023/08/16 08:59:53;;;;;;;9.63;8.33;;;;;;;27.71;88.41;100926.41;5190818;55;1138708;-65
2023/08/16 09:05:04;;;;;;;12.13;6.80;;;;;;;27.88;85.99;100929.70;5170779;55;1138672;-65
2023/08/16 09:10:10;;;;;;;9.53;6.80;;;;;;;27.97;86.82;100929.72;5170425;55;1140765;-65
2023/08/16 09:15:16;;;;;;;8.03;7.22;;;;;;;28.12;86.13;100931.26;5190804;55;1138862;-65
2023/08/16 09:20:22;;;;;;;8.33;6.90;;;;;;;28.14;84.50;100934.06;5170209;55;1138984;-66
2023/08/16 09:25:30;;;;;;;7.87;7.17;;;;;;;28.32;84.89;100939.56;5170240;55;1138886;-65
2023/08/16 09:30:37;;;;;;;7.12;6.36;;;;;;;28.56;82.20;100943.83;5206626;54;1138628;-67
2023/08/16 09:35:50;;;;;;;9.20;6.80;;;;;;;28.56;82.20;100943.83;5279237;54;1138870;-65
2023/08/16 09:40:56;;;;;;;9.00;6.65;;;;;;;28.67;82.27;100940.34;5259027;54;1138606;-66
2023/08/16 09:46:03;;;;;;;7.72;7.00;;;;;;;28.78;81.86;100946.90;5258717;54;1138647;-65
2023/08/16 09:51:08;;;;;;;17.60;8.04;;;;;;;28.86;82.48;100948.00;5279615;54;1138563;-65
2023/08/16 09:56:16;;;;;;;8.05;6.30;;;;;;;29.02;82.19;100945.48;5258542;54;1140897;-65
2023/08/16 10:01:22;;;;;;;10.53;7.12;;;;;;;29.23;79.54;100955.02;5258961;54;1138934;-65
2023/08/16 10:06:30;;;;;;;6.53;6.03;;;;;;;29.26;79.51;100947.76;5278721;54;1140685;-65
2023/08/16 10:11:38;;;;;;;8.05;6.65;;;;;;;29.46;78.55;100939.33;5220029;54;1260389;-65
2023/08/16 10:16:46;;;;;;;9.60;6.90;;;;;;;29.55;79.06;100947.45;5170194;55;1138366;-66
2023/08/16 10:21:54;;;;;;;8.03;5.87;;;;;;;29.74;79.04;100942.77;5174271;55;1138772;-66
2023/08/16 10:27:04;;;;;;;9.35;6.12;;;;;;;29.76;78.43;100943.36;5259118;54;1138848;-65
2023/08/16 10:32:13;;;;;;;9.33;6.50;;;;;;;29.93;75.77;100950.32;5170125;55;1138819;-65
2023/08/16 10:37:19;;;;;;;5.70;5.20;;;;;;;29.97;77.42;100953.71;5187060;54;1139025;-65
2023/08/16 10:42:28;;;;;;;5.45;4.97;;;;;;;30.16;76.66;100949.52;5279584;54;1138551;-66
2023/08/16 10:47:37;;;;;;;7.62;4.87;;;;;;;30.23;74.26;100955.70;5258795;54;1138737;-65
2023/08/16 10:52:44;;;;;;;6.75;5.03;;;;;;;30.29;73.38;100954.19;5258641;54;1138741;-65
2023/08/16 10:57:53;;;;;;;4.65;4.03;;;;;;;30.42;72.89;100955.84;5264754;54;1138691;-66
2023/08/16 11:03:00;;;;;;;7.12;4.80;;;;;;;30.52;69.85;100953.89;5300061;54;1138666;-65
2023/08/16 11:08:09;;;;;;;7.55;4.35;;;;;;;30.57;71.46;100958.94;5250755;54;1139207;-68
2023/08/16 11:13:15;;;;;;;7.10;5.45;;;;;;;30.73;70.58;100954.63;5280978;54;1148057;-66
2023/08/16 11:18:34;;;;;;;10.65;4.45;;;;;;;30.88;71.23;100959.58;5278108;54;1138823;-66
2023/08/16 11:23:42;;;;;;;3.95;3.65;;;;;;;30.87;69.58;100966.11;5187043;55;1140868;-65
2023/08/16 11:28:48;;;;;;;5.90;4.80;;;;;;;31.03;69.60;100970.27;5190987;55;1138736;-66
2023/08/16 11:33:54;;;;;;;7.28;4.72;;;;;;;31.24;70.45;100973.45;5234996;54;1138848;-65
2023/08/16 11:39:00;;;;;;;6.17;4.00;;;;;;;31.25;67.26;100975.11;5280801;54;1138780;-65
2023/08/16 11:44:07;;;;;;;5.62;4.37;;;;;;;31.25;65.05;100977.84;5280419;55;1138609;-67
2023/08/16 11:49:14;;;;;;;4.07;3.63;;;;;;;31.19;66.01;100986.47;5267385;55;1138757;-66
2023/08/16 11:54:24;;;;;;;3.97;3.57;;;;;;;31.21;67.24;100980.22;5202375;55;1138870;-66
2023/08/16 11:59:37;;;;;;;3.90;3.52;;;;;;;31.44;65.69;100977.94;5194931;55;1138833;-66
2023/08/16 12:04:47;;;;;;;5.78;3.77;;;;;;;31.54;65.52;100973.18;5186468;55;1138984;-66
2023/08/16 12:09:51;;;;;;;7.05;3.27;;;;;;;31.61;63.65;100976.60;5279177;54;1138803;-66
2023/08/16 12:14:57;;;;;;;3.05;2.83;;;;;;;31.72;64.26;100975.19;5230032;55;1138662;-66
2023/08/16 12:20:02;;;;;;;5.30;3.08;;;;;;;31.93;65.71;100966.76;5167225;55;1138749;-65
2023/08/16 12:25:08;;;;;;;3.58;3.22;;;;;;;32.14;64.77;100970.66;5190693;55;1138721;-66
2023/08/16 12:30:14;;;;;;;14.13;3.17;;;;;;;32.23;63.70;100965.09;5195113;55;1138647;-65
2023/08/16 12:35:19;;;;;;;3.13;2.80;;;;;;;32.35;64.20;100963.08;5224052;55;1140883;-66
2023/08/16 12:40:28;;;;;;;4.50;3.33;;;;;;;32.53;63.99;100968.80;5279933;54;1138887;-66
2023/08/16 12:45:32;;;;;;;3.60;3.30;;;;;;;32.57;59.53;100966.37;5258872;54;1138985;-65
2023/08/16 12:50:38;;;;;;;5.42;3.80;;;;;;;32.39;61.65;100963.38;5195515;54;1138908;-66
2023/08/16 12:55:44;;;;;;;6.20;3.30;;;;;;;32.39;60.31;100955.16;5170712;55;1138829;-66
2023/08/16 13:00:49;;;;;;;4.72;3.25;;;;;;;32.39;59.68;100951.89;5207291;54;1138937;-65
2023/08/16 13:05:55;;;;;;;4.30;2.45;;;;;;;32.26;59.21;100961.83;5277752;54;1138798;-65
2023/08/16 13:11:01;;;;;;;3.50;2.62;;;;;;;31.91;59.42;100966.20;5264191;54;1138723;-65
2023/08/16 13:16:07;;;;;;;3.37;2.90;;;;;;;31.77;61.21;100961.61;5232587;55;1173757;-65
2023/08/16 13:21:13;;;;;;;6.20;3.08;;;;;;;31.90;60.14;100960.45;5216612;54;1139340;-65
2023/08/16 13:26:20;;;;;;;5.45;2.55;;;;;;;32.00;60.91;100957.03;5210815;54;1138899;-66
2023/08/16 13:31:27;;;;;;;4.83;2.75;;;;;;;32.20;59.53;100953.81;5299483;54;1138766;-67
2023/08/16 13:36:34;;;;;;;5.62;3.10;;;;;;;32.15;59.56;100954.53;5279433;54;1138698;-66
2023/08/16 13:41:39;;;;;;;6.17;2.62;;;;;;;32.37;61.89;100947.23;5279302;54;1138912;-65
2023/08/16 13:46:45;;;;;;;3.37;2.63;;;;;;;32.59;60.76;100955.45;5265716;54;1138645;-65
2023/08/16 13:51:51;;;;;;;4.28;3.08;;;;;;;32.80;60.75;100948.36;5234231;54;1138696;-66
2023/08/16 13:56:56;;;;;;;4.40;2.87;;;;;;;32.85;60.60;100946.48;5275389;54;1138668;-66
2023/08/16 14:02:02;;;;;;;4.00;2.60;;;;;;;32.93;60.55;100949.33;5279960;54;1138764;-66
2023/08/16 14:07:09;;;;;;;5.14;3.30;;;;;;;33.16;60.65;100941.34;5276335;54;1138714;-67
2023/08/16 14:12:14;;;;;;;2.50;2.30;;;;;;;33.28;60.14;100948.11;5184222;55;1138970;-66
2023/08/16 14:17:20;;;;;;;3.57;2.50;;;;;;;33.07;58.21;100949.22;5170118;55;1138694;-66
2023/08/16 14:22:26;;;;;;;3.35;2.65;;;;;;;32.91;58.61;100947.39;5278136;54;1138597;-66
2023/08/16 14:27:31;;;;;;;4.50;2.87;;;;;;;32.91;59.13;100944.65;5224061;54;1138844;-66
2023/08/16 14:32:37;;;;;;;6.27;2.77;;;;;;;33.00;59.66;100948.58;5168342;56;1138785;-65
2023/08/16 14:37:43;;;;;;;5.53;2.90;;;;;;;33.05;59.28;100951.92;5169888;54;1138792;-66
2023/08/16 14:42:49;;;;;;;2.80;2.37;;;;;;;32.93;60.07;100952.08;5188697;54;1138596;-66
2023/08/16 14:47:54;;;;;;;7.45;3.80;;;;;;;32.77;59.27;100956.55;5238716;54;1138820;-66
2023/08/16 14:53:00;;;;;;;5.95;2.52;;;;;;;32.68;59.69;100959.96;5243298;54;1138534;-66
2023/08/16 14:58:08;;;;;;;5.00;2.60;;;;;;;32.45;59.62;100964.58;5189668;55;1138657;-65
2023/08/16 15:03:14;;;;;;;2.82;2.32;;;;;;;32.25;60.70;100960.71;5170400;55;1138883;-65
2023/08/16 15:08:19;;;;;;;4.73;2.40;;;;;;;32.36;61.13;100958.43;5169955;55;1138703;-66
2023/08/16 15:13:25;;;;;;;6.42;2.80;;;;;;;32.34;60.93;100966.06;5258760;54;1138782;-66
2023/08/16 15:18:30;;;;;;;5.50;3.58;;;;;;;32.33;60.93;100967.14;5259175;54;1138746;-66
2023/08/16 15:23:36;;;;;;;9.45;3.67;;;;;;;32.18;60.79;100963.61;5259206;54;1138802;-66
2023/08/16 15:28:42;;;;;;;7.40;3.35;;;;;;;31.92;61.19;100971.97;5259490;54;1138742;-65
2023/08/16 15:33:48;;;;;;;7.15;4.00;;;;;;;31.98;62.97;100979.16;5279868;54;1138801;-66
2023/08/16 15:38:53;;;;;;;5.28;3.87;;;;;;;31.72;61.92;100982.02;5258684;54;1138832;-65
2023/08/16 15:43:59;;;;;;;7.67;4.33;;;;;;;31.73;62.77;100982.32;5259195;54;1138874;-65
2023/08/16 15:49:04;;;;;;;5.10;3.83;;;;;;;31.54;62.69;100985.48;5249539;54;1138616;-65
2023/08/16 15:54:11;;;;;;;8.88;4.12;;;;;;;31.46;63.57;100988.09;5262305;54;1138898;-67
2023/08/16 15:59:17;;;;;;;4.03;3.63;;;;;;;31.44;63.93;100993.80;5226738;54;1138880;-66
2023/08/16 16:04:24;;;;;;;4.33;3.12;;;;;;;31.50;64.06;100997.44;5186872;55;1138726;-65
2023/08/16 16:09:30;;;;;;;3.33;2.92;;;;;;;31.65;63.42;100995.02;5168382;55;1138708;-65
2023/08/16 16:14:35;;;;;;;4.22;3.08;;;;;;;31.74;62.89;100998.19;5193508;55;1138850;-66
2023/08/16 16:19:41;;;;;;;5.95;3.50;;;;;;;31.81;62.39;101001.05;5258662;54;1139008;-65
2023/08/16 16:24:47;;;;;;;3.60;2.80;;;;;;;31.65;61.30;101001.85;5279640;54;1138757;-65
2023/08/16 16:29:52;;;;;;;6.83;2.77;;;;;;;31.57;62.61;100994.03;5236954;55;1138762;-66
2023/08/16 16:34:58;;;;;;;5.03;2.90;;;;;;;31.48;62.46;100996.31;5170181;55;1138670;-66
2023/08/16 16:40:05;;;;;;;4.10;2.65;;;;;;;31.32;63.09;100996.30;5190662;55;1138869;-67
2023/08/16 16:45:12;;;;;;;4.12;2.90;;;;;;;31.40;63.89;101004.09;5177313;55;1138823;-68
2023/08/16 16:50:18;;;;;;;3.42;3.15;;;;;;;31.21;63.64;100999.89;5170131;54;1138600;-66
2023/08/16 16:55:24;;;;;;;5.60;3.00;;;;;;;31.13;63.52;100999.75;5190749;55;1138633;-66
2023/08/16 17:00:30;;;;;;;3.43;2.67;;;;;;;31.09;63.24;100993.91;5166540;55;1138707;-66
2023/08/16 17:05:35;;;;;;;4.05;3.10;;;;;;;31.04;62.69;101005.26;5170329;55;1138701;-66
2023/08/16 17:10:41;;;;;;;2.90;2.55;;;;;;;30.94;62.84;101005.89;5188151;54;1138946;-67
2023/08/16 17:15:46;;;;;;;9.95;3.10;;;;;;;30.89;62.74;101022.16;5301356;54;1138874;-66
2023/08/16 17:20:52;;;;;;;4.65;2.75;;;;;;;30.74;62.14;101034.95;5279782;54;1138720;-66
2023/08/16 17:25:58;;;;;;;7.53;2.83;;;;;;;30.65;62.53;101043.77;5280433;54;1138656;-65
2023/08/16 17:31:04;;;;;;;5.97;2.75;;;;;;;30.61;62.63;101050.76;5298647;54;1139236;-66
2023/08/16 17:36:16;;;;;;;6.00;3.20;;;;;;;30.51;63.22;101051.87;5201640;55;1138601;-65
2023/08/16 17:41:22;;;;;;;8.53;3.00;;;;;;;30.29;63.37;101055.70;5201216;55;1138742;-65
2023/08/16 17:46:27;;;;;;;3.47;3.00;;;;;;;30.13;63.53;101053.13;5221159;55;1138587;-66
2023/08/16 17:51:33;;;;;;;8.43;3.02;;;;;;;29.93;64.11;101053.43;5272634;54;1138699;-66
2023/08/16 17:56:38;;;;;;;3.72;2.80;;;;;;;29.82;64.57;101054.74;5258132;55;1138840;-66
2023/08/16 18:01:44;;;;;;;8.03;3.00;;;;;;;29.77;64.86;101050.00;5134893;55;1138709;-65
2023/08/16 18:06:50;;;;;;;10.98;2.75;;;;;;;29.75;64.77;101052.12;5169752;55;1138833;-66
2023/08/16 18:11:56;;;;;;;6.08;4.30;;;;;;;29.57;64.99;101054.91;5273525;54;1140967;-66
2023/08/16 18:17:02;;;;;;;15.40;7.35;;;;;;;29.34;65.49;101050.13;5237600;54;1138651;-65
2023/08/16 18:22:08;;;;;;;19.87;8.20;;;;;;;29.18;65.92;101054.88;5231497;55;1140890;-66
2023/08/16 18:27:13;;;;;;;6.15;4.83;;;;;;;28.97;66.92;101056.16;5272062;55;1140720;-65
2023/08/16 18:32:19;;;;;;;8.85;4.05;;;;;;;28.98;67.68;101068.19;5271864;55;1138428;-65
2023/08/16 18:37:24;;;;;;;6.35;3.50;;;;;;;28.95;67.70;101082.25;5292201;55;1138829;-66
2023/08/16 18:42:30;;;;;;;6.67;3.58;;;;;;;28.87;67.59;101085.28;5270578;55;1138728;-65
2023/08/16 18:47:36;;;;;;;9.15;3.67;;;;;;;28.80;67.98;101084.51;5279899;55;1138664;-65
2023/08/16 18:52:42;;;;;;;8.00;2.65;;;;;;;28.67;67.71;101081.36;5352247;55;1138702;-66
2023/08/16 18:57:48;;;;;;;4.92;3.00;;;;;;;28.61;68.04;101097.22;5292164;56;1138667;-65
2023/08/16 19:02:53;;;;;;;8.10;3.05;;;;;;;28.57;68.47;101099.27;5276995;55;1138808;-65
2023/08/16 19:07:59;;;;;;;6.23;2.50;;;;;;;28.43;68.66;101108.57;5362793;55;1138730;-66
2023/08/16 19:13:04;;;;;;;6.20;3.17;;;;;;;28.23;69.10;101125.91;5346875;54;1138653;-65
2023/08/16 19:18:11;;;;;;;12.40;3.58;;;;;;;28.05;69.96;101129.86;5303906;55;1139225;-66
2023/08/16 19:23:17;;;;;;;4.60;2.65;;;;;;;27.78;70.77;101133.27;5152766;56;1140839;-65
2023/08/16 19:28:22;;;;;;;3.65;2.80;;;;;;;27.54;71.91;101134.79;5382941;55;1138774;-65
2023/08/16 19:33:28;;;;;;;3.92;2.83;;;;;;;27.38;72.26;101135.79;5127925;54;1138863;-66
2023/08/16 19:38:33;;;;;;;2.98;2.15;;;;;;;27.22;72.69;101122.98;5168768;55;1138578;-65
2023/08/16 19:43:39;;;;;;;3.42;3.08;;;;;;;27.13;73.21;101121.56;5190195;55;1138634;-65
2023/08/16 19:48:45;;;;;;;3.92;3.08;;;;;;;26.90;73.47;101126.05;5044176;56;1138687;-65
2023/08/16 19:53:50;;;;;;;5.13;2.73;;;;;;;26.83;73.97;101139.34;5170749;56;1138680;-66
2023/08/16 19:58:58;;;;;;;14.15;3.20;;;;;;;26.68;73.84;101137.36;5136022;55;1138763;-65
2023/08/16 20:04:03;;;;;;;6.22;2.87;;;;;;;26.50;73.98;101131.20;5251972;54;1140835;-65
2023/08/16 20:09:09;;;;;;;9.73;2.70;;;;;;;26.27;73.94;101141.92;5277460;55;1139201;-65
2023/08/16 20:14:15;;;;;;;6.45;2.77;;;;;;;26.07;73.65;101142.39;5370944;54;1139104;-65
2023/08/16 20:19:20;;;;;;;3.42;2.75;;;;;;;25.88;74.29;101150.78;5215433;56;1138929;-66
2023/08/16 20:24:26;;;;;;;6.67;2.62;;;;;;;25.83;74.21;101156.48;5362712;54;1138839;-66
2023/08/16 20:29:31;;;;;;;6.28;2.92;;;;;;;25.84;73.92;101163.06;5383031;55;1138745;-65
2023/08/16 20:34:56;;;;;;;2.27;2.02;;;;;;;25.64;73.29;101159.98;5277370;55;1138432;-65
2023/08/16 20:40:01;;;;;;;3.20;2.52;;;;;;;25.55;73.25;101158.75;5271485;55;1138430;-65
2023/08/16 20:45:09;;;;;;;2.42;2.08;;;;;;;25.36;72.52;101150.55;5122320;56;1138415;-65
2023/08/16 20:50:15;;;;;;;6.85;2.42;;;;;;;25.18;72.54;101147.00;5184803;56;1138896;-66
2023/08/16 20:55:21;;;;;;;10.23;2.92;;;;;;;25.08;72.50;101148.69;5124039;55;1138687;-65
2023/08/16 21:00:27;;;;;;;7.12;2.30;;;;;;;24.95;72.67;101147.26;5149005;57;1140721;-65
2023/08/16 21:05:32;;;;;;;2.73;2.23;;;;;;;24.82;72.08;101141.72;5206389;56;1138590;-65
2023/08/16 21:10:38;;;;;;;4.10;1.85;;;;;;;24.65;72.14;101145.23;5168152;56;1138790;-65
2023/08/16 21:15:43;;;;;;;2.15;1.70;;;;;;;24.42;72.55;101147.33;5325153;55;1138476;-65
2023/08/16 21:20:49;;;;;;;5.33;2.00;;;;;;;24.30;72.85;101156.97;5181439;56;1138964;-65
2023/08/16 21:25:56;;;;;;;10.50;2.15;;;;;;;24.27;73.25;101150.10;5168800;56;1138914;-65
2023/08/16 21:31:01;;;;;;;2.85;2.25;;;;;;;24.23;73.05;101143.41;5160529;56;1140747;-65
2023/08/16 21:36:07;;;;;;;6.65;2.67;;;;;;;24.11;73.50;101140.86;5290013;55;1138856;-66
2023/08/16 21:41:13;;;;;;;7.65;2.30;;;;;;;24.06;73.40;101151.40;5169141;56;1138565;-65
2023/08/16 21:46:19;;;;;;;2.65;2.42;;;;;;;24.00;73.48;101154.34;5214999;56;1138452;-65
2023/08/16 21:51:26;;;;;;;5.83;2.00;;;;;;;23.90;73.27;101148.42;5184341;56;1138690;-65
2023/08/16 21:56:31;;;;;;;8.40;2.50;;;;;;;23.81;73.60;101149.57;5149017;57;1138843;-65
2023/08/16 22:01:39;;;;;;;5.95;2.85;;;;;;;23.71;73.60;101159.82;5183388;56;1138459;-65
2023/08/16 22:06:44;;;;;;;3.72;1.77;;;;;;;23.62;74.04;101165.02;5124067;57;1138657;-65
2023/08/16 22:11:50;;;;;;;3.52;2.10;;;;;;;23.54;74.11;101174.04;5228022;56;1138648;-66
2023/08/16 22:16:56;;;;;;;2.33;1.87;;;;;;;23.54;74.35;101175.91;5249542;56;1138707;-65
2023/08/16 22:22:01;;;;;;;5.62;2.33;;;;;;;23.42;74.27;101170.95;5184350;56;1138497;-65
2023/08/16 22:27:07;;;;;;;7.45;1.70;;;;;;;23.40;74.33;101166.76;5184152;56;1138639;-65
2023/08/16 22:32:12;;;;;;;6.40;2.22;;;;;;;23.34;74.36;101170.22;5203372;56;1138830;-65
2023/08/16 22:37:18;;;;;;;3.10;2.02;;;;;;;23.29;74.80;101155.92;5129076;56;1138644;-66
2023/08/16 22:42:25;;;;;;;6.45;2.17;;;;;;;23.18;74.62;101159.61;5150273;56;1138643;-65
2023/08/16 22:47:31;;;;;;;4.60;2.08;;;;;;;23.18;74.94;101156.91;5088077;57;1138709;-65
2023/08/16 22:52:36;;;;;;;7.05;2.55;;;;;;;23.08;74.98;101162.55;5116539;56;1138821;-65
2023/08/16 22:57:43;;;;;;;4.50;1.90;;;;;;;23.03;75.47;101162.30;5088603;56;1138509;-65
2023/08/16 23:02:49;;;;;;;4.65;2.22;;;;;;;22.98;75.61;101157.95;5128012;57;1138845;-65
2023/08/16 23:07:54;;;;;;;4.65;1.90;;;;;;;22.90;76.10;101159.39;5148755;56;1138724;-65